^^
Datos históricos de la estación: Murcia-Puente Tocinos
Diario Informe para Julio 27, 2019 Unidades:  Ambas    Ingés   Métrico
Diario Semanal Mensual Anual
  Máxima: Mínima: Promedio:
Temperatura: 96.6 °F /  35.9 °C 77.4 °F /  25.2 °C 86.9 °F /  30.5 °C
Punto de rocio: 67.3 °F /  19.6 °C 42.6 °F /  5.9 °C 51.4 °F /  10.8 °C
Humedad: 62% 16% 32%
Velocidad viento: 17.5mph /  28.2km/h - 6.5mph /  10.5km/h
Racha viento: 31.1mph /  50.1km/h - -
Viento- - SO
Presión: 29.7 in /  1006.5 hPa 29.6 in /  1001.7 hPa -
Precipitación: 0 in /  0.0 mm    
 
 
Tabla de datos para Julio 27, 2019
Hora Temperatura Punto de rocio Presión Viento Velocidad viento Racha viento Humedad Intensidad lluvia(por hora) Nubes
00:04 81.7 °F /  27.6 °C 67.3 °F /  19.6 °C 29.7in /  1006.4hPa NNE 3.1mph /  5km/h 6mph /  9.7km/h 62% 0in /  0.0mm
00:09 81.5 °F /  27.5 °C 67.3 °F /  19.6 °C 29.7in /  1006.4hPa NE 3mph /  4.9km/h 5mph /  8km/h 62% 0in /  0.0mm
00:14 81.5 °F /  27.5 °C 67.3 °F /  19.6 °C 29.7in /  1006.4hPa NE 2.9mph /  4.7km/h 3mph /  4.8km/h 62% 0in /  0.0mm
00:19 81.7 °F /  27.6 °C 66.6 °F /  19.2 °C 29.7in /  1006.4hPa NE 2mph /  3.2km/h 3.1mph /  5km/h 60.5% 0in /  0.0mm
00:24 81.7 °F /  27.6 °C 66.4 °F /  19.1 °C 29.7in /  1006.3hPa Calm   3.5mph /  5.6km/h 59.7% 0in /  0.0mm
00:29 81.9 °F /  27.7 °C 66.7 °F /  19.3 °C 29.7in /  1006.3hPa NNO 0.4mph /  0.7km/h 3.6mph /  5.8km/h 60.4% 0in /  0.0mm
00:34 81.9 °F /  27.7 °C 67.1 °F /  19.5 °C 29.7in /  1006.3hPa NO 1.4mph /  2.2km/h 5.4mph /  8.7km/h 61% 0in /  0.0mm
00:39 81.9 °F /  27.7 °C 67.1 °F /  19.5 °C 29.7in /  1006.3hPa NO 1.7mph /  2.7km/h 6mph /  9.7km/h 61% 0in /  0.0mm
00:44 81.7 °F /  27.6 °C 67.1 °F /  19.5 °C 29.7in /  1006.3hPa NO 2.4mph /  3.9km/h 6mph /  9.7km/h 61.3% 0in /  0.0mm
00:49 81.5 °F /  27.5 °C 66.9 °F /  19.4 °C 29.7in /  1006.4hPa NO 2.2mph /  3.6km/h 5mph /  8km/h 61.4% 0in /  0.0mm
00:54 81.5 °F /  27.5 °C 66.9 °F /  19.4 °C 29.7in /  1006.4hPa ONO 1.8mph /  2.9km/h 4.6mph /  7.4km/h 61.6% 0in /  0.0mm
00:59 81.3 °F /  27.4 °C 67.1 °F /  19.5 °C 29.7in /  1006.4hPa ONO 1.9mph /  3km/h 5mph /  8km/h 62% 0in /  0.0mm
01:04 81.3 °F /  27.4 °C 67.1 °F /  19.5 °C 29.7in /  1006.5hPa ONO 2mph /  3.2km/h 5mph /  8km/h 62% 0in /  0.0mm
01:09 81.3 °F /  27.4 °C 66.7 °F /  19.3 °C 29.7in /  1006.5hPa ONO 1.9mph /  3.1km/h 3.6mph /  5.8km/h 61.2% 0in /  0.0mm
01:14 81.7 °F /  27.6 °C 66.6 °F /  19.2 °C 29.7in /  1006.5hPa ONO 1.8mph /  2.9km/h 4mph /  6.4km/h 60.6% 0in /  0.0mm
01:19 81.7 °F /  27.6 °C 66.2 °F /  19 °C 29.7in /  1006.5hPa ONO 1.7mph /  2.7km/h 3mph /  4.8km/h 59.6% 0in /  0.0mm
01:24 81.9 °F /  27.7 °C 66.2 °F /  19 °C 29.7in /  1006.3hPa ONO 1.4mph /  2.2km/h 3mph /  4.8km/h 59.1% 0in /  0.0mm
01:29 81.9 °F /  27.7 °C 66.2 °F /  19 °C 29.7in /  1006.3hPa SO 1.6mph /  2.5km/h 4.6mph /  7.4km/h 59% 0in /  0.0mm
01:34 82 °F /  27.8 °C 66.4 °F /  19.1 °C 29.7in /  1006.3hPa Sur 2mph /  3.2km/h 6.2mph /  10km/h 59% 0in /  0.0mm
01:39 82 °F /  27.8 °C 66.4 °F /  19.1 °C 29.7in /  1006.1hPa Sur 2.5mph /  4km/h 6.9mph /  11.1km/h 59% 0in /  0.0mm
01:44 82 °F /  27.8 °C 66.4 °F /  19.1 °C 29.7in /  1006.1hPa SSO 3.6mph /  5.8km/h 7mph /  11.3km/h 59% 0in /  0.0mm
01:49 82 °F /  27.8 °C 66.2 °F /  19 °C 29.7in /  1006.1hPa SSO 3.6mph /  5.8km/h 6.2mph /  10km/h 59% 0in /  0.0mm
01:54 82 °F /  27.8 °C 66.2 °F /  19 °C 29.7in /  1006.0hPa Sur 3.6mph /  5.8km/h 6.2mph /  10km/h 59% 0in /  0.0mm
01:59 81.9 °F /  27.7 °C 66 °F /  18.9 °C 29.7in /  1006.0hPa Sur 3.7mph /  6km/h 6mph /  9.7km/h 59% 0in /  0.0mm
02:04 81.9 °F /  27.7 °C 66 °F /  18.9 °C 29.7in /  1006.0hPa SE 4mph /  6.5km/h 6mph /  9.7km/h 59% 0in /  0.0mm
02:09 81.7 °F /  27.6 °C 66 °F /  18.9 °C 29.7in /  1006.0hPa SSE 3.7mph /  6km/h 6.9mph /  11.1km/h 59% 0in /  0.0mm
02:14 81.1 °F /  27.3 °C 65.5 °F /  18.6 °C 29.7in /  1006.0hPa Sur 3.1mph /  5km/h 7mph /  11.3km/h 59% 0in /  0.0mm
02:19 81.1 °F /  27.3 °C 65.5 °F /  18.6 °C 29.7in /  1006.0hPa SSO 3.4mph /  5.4km/h 6mph /  9.7km/h 59% 0in /  0.0mm
02:24 81.1 °F /  27.3 °C 65.5 °F /  18.6 °C 29.7in /  1005.9hPa SSO 4mph /  6.5km/h 6mph /  9.7km/h 59% 0in /  0.0mm
02:29 81.1 °F /  27.3 °C 65.3 °F /  18.5 °C 29.7in /  1005.9hPa SSO 3.9mph /  6.2km/h 6.2mph /  10km/h 58.5% 0in /  0.0mm
02:34 81.1 °F /  27.3 °C 64.9 °F /  18.3 °C 29.7in /  1005.9hPa Sur 3.6mph /  5.8km/h 6mph /  9.7km/h 58% 0in /  0.0mm
02:39 81.3 °F /  27.4 °C 65.1 °F /  18.4 °C 29.7in /  1005.9hPa SSO 3.4mph /  5.5km/h 5mph /  8km/h 58% 0in /  0.0mm
02:44 81.3 °F /  27.4 °C 64.9 °F /  18.3 °C 29.7in /  1005.9hPa SSO 2.9mph /  4.7km/h 4mph /  6.4km/h 57.8% 0in /  0.0mm
02:49 81.3 °F /  27.4 °C 63.9 °F /  17.7 °C 29.7in /  1005.9hPa OSO 2.7mph /  4.4km/h 5.8mph /  9.3km/h 55.5% 0in /  0.0mm
02:54 81.3 °F /  27.4 °C 61.2 °F /  16.2 °C 29.7in /  1005.9hPa SO 2.4mph /  3.9km/h 8.1mph /  13km/h 50.3% 0in /  0.0mm
02:59 81.9 °F /  27.7 °C 57.9 °F /  14.4 °C 29.7in /  1005.9hPa OSO 2.9mph /  4.7km/h 8.5mph /  13.7km/h 44.3% 0in /  0.0mm
03:04 82 °F /  27.8 °C 55.4 °F /  13 °C 29.7in /  1005.9hPa OSO 4mph /  6.5km/h 9mph /  14.5km/h 40% 0in /  0.0mm
03:09 82.4 °F /  28 °C 53.2 °F /  11.8 °C 29.7in /  1005.8hPa SO 4.1mph /  6.6km/h 9mph /  14.5km/h 36.8% 0in /  0.0mm
03:14 82.8 °F /  28.2 °C 52.7 °F /  11.5 °C 29.7in /  1005.8hPa SO 4.3mph /  6.9km/h 7mph /  11.3km/h 35.6% 0in /  0.0mm
03:19 82.9 °F /  28.3 °C 51.8 °F /  11 °C 29.7in /  1005.9hPa SO 4.3mph /  6.9km/h 7.4mph /  11.9km/h 34.1% 0in /  0.0mm
03:24 82.9 °F /  28.3 °C 51.6 °F /  10.9 °C 29.7in /  1005.9hPa OSO 4.3mph /  6.9km/h 7mph /  11.3km/h 34% 0in /  0.0mm
03:29 82.9 °F /  28.3 °C 51.8 °F /  11 °C 29.7in /  1005.9hPa SO 4.1mph /  6.6km/h 6mph /  9.7km/h 34.1% 0in /  0.0mm
03:34 82.9 °F /  28.3 °C 55 °F /  12.8 °C 29.7in /  1005.9hPa Sur 3.6mph /  5.8km/h 6mph /  9.7km/h 38.5% 0in /  0.0mm
03:39 82.6 °F /  28.1 °C 58.3 °F /  14.6 °C 29.7in /  1005.9hPa Sur 3.8mph /  6.1km/h 6.9mph /  11.1km/h 43.8% 0in /  0.0mm
03:44 82 °F /  27.8 °C 58.5 °F /  14.7 °C 29.7in /  1005.9hPa SO 4.3mph /  6.9km/h 7mph /  11.3km/h 44.8% 0in /  0.0mm
03:49 81.7 °F /  27.6 °C 57.7 °F /  14.3 °C 29.7in /  1005.9hPa SO 4.2mph /  6.8km/h 6mph /  9.7km/h 44.2% 0in /  0.0mm
03:54 81.7 °F /  27.6 °C 56.5 °F /  13.6 °C 29.7in /  1005.8hPa SO 4mph /  6.5km/h 6.2mph /  10km/h 42.3% 0in /  0.0mm
03:59 81.9 °F /  27.7 °C 55.4 °F /  13 °C 29.7in /  1005.8hPa SO 4mph /  6.5km/h 6.2mph /  10km/h 40.3% 0in /  0.0mm
04:04 82 °F /  27.8 °C 54.3 °F /  12.4 °C 29.7in /  1005.8hPa SO 4mph /  6.5km/h 6.9mph /  11.1km/h 38.6% 0in /  0.0mm
04:09 82.2 °F /  27.9 °C 53.2 °F /  11.8 °C 29.7in /  1005.8hPa OSO 3.7mph /  6km/h 7mph /  11.3km/h 36.9% 0in /  0.0mm
04:14 82.4 °F /  28 °C 51.4 °F /  10.8 °C 29.7in /  1005.8hPa OSO 3.1mph /  5km/h 7.4mph /  11.9km/h 34.2% 0in /  0.0mm
04:19 82.4 °F /  28 °C 51.3 °F /  10.7 °C 29.7in /  1005.8hPa OSO 3.2mph /  5.2km/h 7mph /  11.3km/h 33.9% 0in /  0.0mm
04:24 82.4 °F /  28 °C 50.5 °F /  10.3 °C 29.7in /  1005.7hPa Oeste 3.6mph /  5.8km/h 6.9mph /  11.1km/h 33.2% 0in /  0.0mm
04:29 82.2 °F /  27.9 °C 49.5 °F /  9.7 °C 29.7in /  1005.7hPa Oeste 3.4mph /  5.5km/h 7mph /  11.3km/h 32.1% 0in /  0.0mm
04:34 82 °F /  27.8 °C 49.3 °F /  9.6 °C 29.7in /  1005.8hPa Oeste 3.1mph /  5km/h 6mph /  9.7km/h 32% 0in /  0.0mm
04:39 81.9 °F /  27.7 °C 49.3 °F /  9.6 °C 29.7in /  1005.8hPa Sur 2.7mph /  4.4km/h 5mph /  8km/h 32.3% 0in /  0.0mm
04:44 81.9 °F /  27.7 °C 50.2 °F /  10.1 °C 29.7in /  1005.8hPa SSE 2mph /  3.2km/h 4mph /  6.4km/h 33.3% 0in /  0.0mm
04:49 81.7 °F /  27.6 °C 50.5 °F /  10.3 °C 29.7in /  1005.8hPa SSE 1.9mph /  3.1km/h 4.3mph /  6.9km/h 34% 0in /  0.0mm
04:54 81.5 °F /  27.5 °C 51.1 °F /  10.6 °C 29.7in /  1005.8hPa SE 1.8mph /  2.9km/h 5.8mph /  9.3km/h 35% 0in /  0.0mm
04:59 81.1 °F /  27.3 °C 51.8 °F /  11 °C 29.7in /  1005.8hPa ESE 2.2mph /  3.6km/h 6mph /  9.7km/h 36% 0in /  0.0mm
05:04 80.8 °F /  27.1 °C 51.8 °F /  11 °C 29.7in /  1005.8hPa SE 3.1mph /  5km/h 6.2mph /  10km/h 36.6% 0in /  0.0mm
05:09 80.4 °F /  26.9 °C 51.8 °F /  11 °C 29.7in /  1005.8hPa SE 3.2mph /  5.2km/h 6.4mph /  10.3km/h 37% 0in /  0.0mm
05:14 80.1 °F /  26.7 °C 51.4 °F /  10.8 °C 29.7in /  1005.8hPa SSE 3.6mph /  5.8km/h 7mph /  11.3km/h 37% 0in /  0.0mm
05:19 80.1 °F /  26.7 °C 51.4 °F /  10.8 °C 29.7in /  1005.9hPa SSE 4mph /  6.4km/h 7mph /  11.3km/h 37% 0in /  0.0mm
05:24 79.9 °F /  26.6 °C 51.3 °F /  10.7 °C 29.7in /  1005.9hPa Sur 4.7mph /  7.6km/h 7mph /  11.3km/h 37% 0in /  0.0mm
05:29 79.9 °F /  26.6 °C 51.3 °F /  10.7 °C 29.7in /  1005.9hPa Sur 4.3mph /  7km/h 6.2mph /  10km/h 37% 0in /  0.0mm
05:34 79.5 °F /  26.4 °C 51.1 °F /  10.6 °C 29.7in /  1006.0hPa SSE 3.6mph /  5.8km/h 6.2mph /  10km/h 37% 0in /  0.0mm
05:39 79.5 °F /  26.4 °C 51.1 °F /  10.6 °C 29.7in /  1006.0hPa Sur 3.7mph /  6km/h 6.9mph /  11.1km/h 37% 0in /  0.0mm
05:44 79.3 °F /  26.3 °C 51.4 °F /  10.8 °C 29.7in /  1006.0hPa Sur 4mph /  6.5km/h 7mph /  11.3km/h 37.8% 0in /  0.0mm
05:49 79.3 °F /  26.3 °C 51.4 °F /  10.8 °C 29.7in /  1006.0hPa SSO 4mph /  6.5km/h 6mph /  9.7km/h 38% 0in /  0.0mm
05:54 79.2 °F /  26.2 °C 51.4 °F /  10.8 °C 29.7in /  1006.0hPa Sur 4mph /  6.5km/h 6.9mph /  11.1km/h 37.9% 0in /  0.0mm
05:59 79.2 °F /  26.2 °C 50.4 °F /  10.2 °C 29.7in /  1006.0hPa SSO 4mph /  6.5km/h 7mph /  11.3km/h 36.5% 0in /  0.0mm
06:04 79.2 °F /  26.2 °C 50 °F /  10 °C 29.7in /  1006.0hPa SSO 4mph /  6.5km/h 7mph /  11.3km/h 36% 0in /  0.0mm
06:09 79.2 °F /  26.2 °C 50 °F /  10 °C 29.7in /  1006.0hPa Sur 3.7mph /  6km/h 6.9mph /  11.1km/h 36% 0in /  0.0mm
06:14 79.2 °F /  26.2 °C 49.3 °F /  9.6 °C 29.7in /  1006.0hPa SSE 3.1mph /  5km/h 7mph /  11.3km/h 35.2% 0in /  0.0mm
06:19 79 °F /  26.1 °C 50.2 °F /  10.1 °C 29.7in /  1006.0hPa ESE 3.2mph /  5.2km/h 6mph /  9.7km/h 36.7% 0in /  0.0mm
06:24 78.4 °F /  25.8 °C 50.4 °F /  10.2 °C 29.7in /  1006.0hPa ESE 3.6mph /  5.8km/h 5.9mph /  9.5km/h 37.3% 0in /  0.0mm
06:29 77.9 °F /  25.5 °C 50.2 °F /  10.1 °C 29.7in /  1006.0hPa ESE 3.4mph /  5.5km/h 6mph /  9.7km/h 37.9% 0in /  0.0mm
06:34 77.5 °F /  25.3 °C 49.6 °F /  9.8 °C 29.7in /  1006.1hPa SE 3.1mph /  5km/h 6.9mph /  11.1km/h 37.5% 0in /  0.0mm
06:39 77.4 °F /  25.2 °C 49.3 °F /  9.6 °C 29.7in /  1006.1hPa SSE 3.1mph /  5km/h 7mph /  11.3km/h 37.2% 0in /  0.0mm
06:44 77.4 °F /  25.2 °C 48.4 °F /  9.1 °C 29.7in /  1006.1hPa SSE 3.1mph /  5km/h 5.8mph /  9.3km/h 36.1% 0in /  0.0mm
06:49 77.5 °F /  25.3 °C 48.2 °F /  9 °C 29.7in /  1006.1hPa SSE 3.2mph /  5.2km/h 6mph /  9.7km/h 35.7% 0in /  0.0mm
06:54 77.5 °F /  25.3 °C 47.7 °F /  8.7 °C 29.7in /  1006.0hPa SSE 3.6mph /  5.8km/h 6.2mph /  10km/h 35% 0in /  0.0mm
06:59 77.5 °F /  25.3 °C 47.5 °F /  8.6 °C 29.7in /  1006.0hPa SE 3.7mph /  6km/h 6.2mph /  10km/h 34.7% 0in /  0.0mm
07:04 77.7 °F /  25.4 °C 47.1 °F /  8.4 °C 29.7in /  1006.0hPa SSE 4mph /  6.5km/h 6.2mph /  10km/h 34% 0in /  0.0mm
07:09 77.7 °F /  25.4 °C 46.9 °F /  8.3 °C 29.7in /  1006.0hPa Sur 4mph /  6.5km/h 6mph /  9.7km/h 33.9% 0in /  0.0mm
07:14 77.7 °F /  25.4 °C 47.1 °F /  8.4 °C 29.7in /  1006.0hPa Sur 4mph /  6.5km/h 6mph /  9.7km/h 33.9% 0in /  0.0mm
07:19 77.7 °F /  25.4 °C 46.4 °F /  8 °C 29.7in /  1006.3hPa Sur 3.4mph /  5.4km/h 5mph /  8km/h 33.2% 0in /  0.0mm
07:24 77.9 °F /  25.5 °C 46.2 °F /  7.9 °C 29.7in /  1006.3hPa SSO 2mph /  3.2km/h 5.9mph /  9.5km/h 32.8% 0in /  0.0mm
07:29 78.3 °F /  25.7 °C 46 °F /  7.8 °C 29.7in /  1006.3hPa Sur 2.5mph /  4km/h 6mph /  9.7km/h 32.1% 0in /  0.0mm
07:34 78.4 °F /  25.8 °C 45.7 °F /  7.6 °C 29.7in /  1006.3hPa Sur 3.6mph /  5.8km/h 6.9mph /  11.1km/h 31.6% 0in /  0.0mm
07:39 78.4 °F /  25.8 °C 45.9 °F /  7.7 °C 29.7in /  1006.1hPa SSO 3.9mph /  6.3km/h 7mph /  11.3km/h 31.6% 0in /  0.0mm
07:44 78.4 °F /  25.8 °C 45.3 °F /  7.4 °C 29.7in /  1006.1hPa SSO 4.7mph /  7.6km/h 7mph /  11.3km/h 31% 0in /  0.0mm
07:49 78.4 °F /  25.8 °C 45.3 °F /  7.4 °C 29.7in /  1006.2hPa SSO 4.6mph /  7.4km/h 7mph /  11.3km/h 31% 0in /  0.0mm
07:54 78.8 °F /  26 °C 45.1 °F /  7.3 °C 29.7in /  1006.2hPa SO 4.3mph /  6.9km/h 7mph /  11.3km/h 30.5% 0in /  0.0mm
07:59 79.2 °F /  26.2 °C 45 °F /  7.2 °C 29.7in /  1006.2hPa SO 4.2mph /  6.8km/h 7.6mph /  12.2km/h 30.1% 0in /  0.0mm
08:04 79.3 °F /  26.3 °C 45.1 °F /  7.3 °C 29.7in /  1006.3hPa SSO 4mph /  6.5km/h 8.1mph /  13km/h 30% 0in /  0.0mm
08:09 79.3 °F /  26.3 °C 45.1 °F /  7.3 °C 29.7in /  1006.3hPa SSO 4.1mph /  6.6km/h 7mph /  11.3km/h 30% 0in /  0.0mm
08:14 79.3 °F /  26.3 °C 45.3 °F /  7.4 °C 29.7in /  1006.3hPa Sur 4.3mph /  6.9km/h 6.9mph /  11.1km/h 30% 0in /  0.0mm
08:19 79.5 °F /  26.4 °C 45.7 °F /  7.6 °C 29.7in /  1006.3hPa Sur 4.3mph /  6.9km/h 7mph /  11.3km/h 30.4% 0in /  0.0mm
08:24 79.5 °F /  26.4 °C 46.2 °F /  7.9 °C 29.7in /  1006.2hPa Sur 4.3mph /  6.9km/h 6mph /  9.7km/h 31% 0in /  0.0mm
08:29 79.5 °F /  26.4 °C 46.2 °F /  7.9 °C 29.7in /  1006.2hPa Sur 3.9mph /  6.3km/h 5.2mph /  8.4km/h 31% 0in /  0.0mm
08:34 79.9 °F /  26.6 °C 46.4 °F /  8 °C 29.7in /  1006.3hPa Sur 3.1mph /  5km/h 5.9mph /  9.5km/h 30.9% 0in /  0.0mm
08:39 80.1 °F /  26.7 °C 46.6 °F /  8.1 °C 29.7in /  1006.3hPa SSO 3.1mph /  5km/h 6.9mph /  11.1km/h 30.9% 0in /  0.0mm
08:44 80.2 °F /  26.8 °C 46.6 °F /  8.1 °C 29.7in /  1006.3hPa SO 3.1mph /  5km/h 7mph /  11.3km/h 30.7% 0in /  0.0mm
08:49 80.4 °F /  26.9 °C 46 °F /  7.8 °C 29.7in /  1006.5hPa SO 3.1mph /  5km/h 5.9mph /  9.5km/h 30% 0in /  0.0mm
08:54 80.8 °F /  27.1 °C 45.9 °F /  7.7 °C 29.7in /  1006.5hPa SSO 3.1mph /  5km/h 8.5mph /  13.7km/h 29.3% 0in /  0.0mm
08:59 80.8 °F /  27.1 °C 45.5 °F /  7.5 °C 29.7in /  1006.5hPa SSO 4mph /  6.5km/h 9.2mph /  14.8km/h 28.9% 0in /  0.0mm
09:04 80.8 °F /  27.1 °C 45.5 °F /  7.5 °C 29.7in /  1006.5hPa SSO 5.9mph /  9.5km/h 9mph /  14.5km/h 29% 0in /  0.0mm
09:09 81 °F /  27.2 °C 45.7 °F /  7.6 °C 29.7in /  1006.3hPa SSO 5.7mph /  9.2km/h 8mph /  12.9km/h 29% 0in /  0.0mm
09:14 81.1 °F /  27.3 °C 45.3 °F /  7.4 °C 29.7in /  1006.3hPa SO 5.2mph /  8.4km/h 7mph /  11.3km/h 28.3% 0in /  0.0mm
09:19 81.7 °F /  27.6 °C 45.3 °F /  7.4 °C 29.7in /  1006.4hPa OSO 4.8mph /  7.8km/h 6.2mph /  10km/h 28% 0in /  0.0mm
09:24 82 °F /  27.8 °C 45.7 °F /  7.6 °C 29.7in /  1006.4hPa OSO 4mph /  6.5km/h 6mph /  9.7km/h 28% 0in /  0.0mm
09:29 82.4 °F /  28 °C 46 °F /  7.8 °C 29.7in /  1006.4hPa OSO 3.5mph /  5.6km/h 5.9mph /  9.5km/h 28% 0in /  0.0mm
09:34 82.6 °F /  28.1 °C 46.2 °F /  7.9 °C 29.7in /  1006.4hPa OSO 2.4mph /  3.9km/h 8.1mph /  13km/h 28% 0in /  0.0mm
09:39 82.6 °F /  28.1 °C 46.2 °F /  7.9 °C 29.7in /  1006.4hPa OSO 2.8mph /  4.5km/h 8.1mph /  13km/h 28% 0in /  0.0mm
09:44 82.9 °F /  28.3 °C 46.4 °F /  8 °C 29.7in /  1006.4hPa SO 3.6mph /  5.8km/h 7mph /  11.3km/h 27.9% 0in /  0.0mm
09:49 83.3 °F /  28.5 °C 46.8 °F /  8.2 °C 29.7in /  1006.4hPa SSO 3.2mph /  5.2km/h 6mph /  9.7km/h 28% 0in /  0.0mm
09:54 83.5 °F /  28.6 °C 46.9 °F /  8.3 °C 29.7in /  1006.4hPa SO 2.4mph /  3.9km/h 6.9mph /  11.1km/h 28.1% 0in /  0.0mm
09:59 83.8 °F /  28.8 °C 46.8 °F /  8.2 °C 29.7in /  1006.4hPa ONO 2.8mph /  4.5km/h 11.4mph /  18.3km/h 27.5% 0in /  0.0mm
10:04 84.4 °F /  29.1 °C 45.7 °F /  7.6 °C 29.7in /  1006.4hPa ONO 3.6mph /  5.8km/h 14mph /  22.5km/h 26.1% 0in /  0.0mm
10:09 84.6 °F /  29.2 °C 45.9 °F /  7.7 °C 29.7in /  1006.4hPa ONO 4.8mph /  7.7km/h 14mph /  22.5km/h 25.9% 0in /  0.0mm
10:14 84.6 °F /  29.2 °C 45.3 °F /  7.4 °C 29.7in /  1006.4hPa ONO 7.4mph /  11.9km/h 14mph /  22.5km/h 25.5% 0in /  0.0mm
10:19 84.9 °F /  29.4 °C 45.3 °F /  7.4 °C 29.7in /  1006.4hPa ONO 7.3mph /  11.7km/h 13mph /  20.9km/h 25.2% 0in /  0.0mm
10:24 84.9 °F /  29.4 °C 45.1 °F /  7.3 °C 29.7in /  1006.3hPa ONO 6.9mph /  11.1km/h 13mph /  20.9km/h 25% 0in /  0.0mm
10:29 84.9 °F /  29.4 °C 45.1 °F /  7.3 °C 29.7in /  1006.3hPa ONO 6.9mph /  11.1km/h 12mph /  19.3km/h 25% 0in /  0.0mm
10:34 85.3 °F /  29.6 °C 45.5 °F /  7.5 °C 29.7in /  1006.3hPa OSO 6.9mph /  11.1km/h 12mph /  19.3km/h 25% 0in /  0.0mm
10:39 85.6 °F /  29.8 °C 45.7 °F /  7.6 °C 29.7in /  1006.2hPa Oeste 5.9mph /  9.5km/h 7mph /  11.3km/h 25% 0in /  0.0mm
10:44 85.8 °F /  29.9 °C 45.1 °F /  7.3 °C 29.7in /  1006.2hPa Oeste 3.6mph /  5.8km/h 9.7mph /  15.6km/h 24.4% 0in /  0.0mm
10:49 85.8 °F /  29.9 °C 44.8 °F /  7.1 °C 29.7in /  1006.2hPa ONO 3.7mph /  6km/h 10mph /  16.1km/h 24% 0in /  0.0mm
10:54 86.2 °F /  30.1 °C 45.1 °F /  7.3 °C 29.7in /  1005.9hPa OSO 4mph /  6.5km/h 7mph /  11.3km/h 24% 0in /  0.0mm
10:59 86.5 °F /  30.3 °C 45.5 °F /  7.5 °C 29.7in /  1005.9hPa Oeste 3.9mph /  6.2km/h 7.4mph /  11.9km/h 24% 0in /  0.0mm
11:04 86.5 °F /  30.3 °C 45.5 °F /  7.5 °C 29.7in /  1005.9hPa SO 3.6mph /  5.8km/h 9.7mph /  15.6km/h 24% 0in /  0.0mm
11:09 86.7 °F /  30.4 °C 45.5 °F /  7.5 °C 29.7in /  1005.7hPa OSO 3.9mph /  6.3km/h 10mph /  16.1km/h 23.9% 0in /  0.0mm
11:14 86.9 °F /  30.5 °C 44.8 °F /  7.1 °C 29.7in /  1005.7hPa SSO 4.7mph /  7.6km/h 12.3mph /  19.8km/h 23.2% 0in /  0.0mm
11:19 86.9 °F /  30.5 °C 44.6 °F /  7 °C 29.7in /  1005.7hPa OSO 4.8mph /  7.8km/h 13mph /  20.9km/h 23% 0in /  0.0mm
11:24 87.3 °F /  30.7 °C 45.1 °F /  7.3 °C 29.7in /  1005.5hPa OSO 5.2mph /  8.4km/h 13mph /  20.9km/h 23.2% 0in /  0.0mm
11:29 87.4 °F /  30.8 °C 45.1 °F /  7.3 °C 29.7in /  1005.5hPa OSO 5.2mph /  8.4km/h 10mph /  16.1km/h 23% 0in /  0.0mm
11:34 87.6 °F /  30.9 °C 44.6 °F /  7 °C 29.7in /  1005.5hPa OSO 5.2mph /  8.4km/h 11.8mph /  19km/h 22.5% 0in /  0.0mm
11:39 87.8 °F /  31 °C 44.2 °F /  6.8 °C 29.7in /  1005.5hPa SO 5.6mph /  9km/h 12.7mph /  20.4km/h 22.1% 0in /  0.0mm
11:44 87.6 °F /  30.9 °C 44.1 °F /  6.7 °C 29.7in /  1005.5hPa Oeste 6.4mph /  10.3km/h 13mph /  20.9km/h 22% 0in /  0.0mm
11:49 87.8 °F /  31 °C 44.2 °F /  6.8 °C 29.7in /  1005.5hPa Oeste 6.3mph /  10.2km/h 11.5mph /  18.5km/h 22% 0in /  0.0mm
11:54 87.8 °F /  31 °C 44.2 °F /  6.8 °C 29.7in /  1005.4hPa OSO 6.2mph /  10km/h 12mph /  19.3km/h 22% 0in /  0.0mm
11:59 88 °F /  31.1 °C 44.4 °F /  6.9 °C 29.7in /  1005.4hPa OSO 5.8mph /  9.4km/h 12mph /  19.3km/h 22% 0in /  0.0mm
12:04 88.3 °F /  31.3 °C 44.2 °F /  6.8 °C 29.7in /  1005.4hPa OSO 5.2mph /  8.4km/h 12.7mph /  20.4km/h 21.7% 0in /  0.0mm
12:09 88.3 °F /  31.3 °C 43.5 °F /  6.4 °C 29.7in /  1005.4hPa ONO 5.5mph /  8.8km/h 13mph /  20.9km/h 21% 0in /  0.0mm
12:14 88.3 °F /  31.3 °C 43.3 °F /  6.3 °C 29.7in /  1005.4hPa SSO 6.2mph /  10km/h 13mph /  20.9km/h 21% 0in /  0.0mm
12:19 88.3 °F /  31.3 °C 43.3 °F /  6.3 °C 29.7in /  1005.4hPa Sur 6.3mph /  10.1km/h 13mph /  20.9km/h 21% 0in /  0.0mm
12:24 88.3 °F /  31.3 °C 43.5 °F /  6.4 °C 29.7in /  1005.4hPa ESE 6.4mph /  10.3km/h 9mph /  14.5km/h 21% 0in /  0.0mm
12:29 89.1 °F /  31.7 °C 44.1 °F /  6.7 °C 29.7in /  1005.4hPa ESE 5.3mph /  8.6km/h 8.5mph /  13.7km/h 21% 0in /  0.0mm
12:34 90 °F /  32.2 °C 44.6 °F /  7 °C 29.7in /  1005.4hPa SSE 3.1mph /  5km/h 9mph /  14.5km/h 21% 0in /  0.0mm
12:39 90.1 °F /  32.3 °C 44.8 °F /  7.1 °C 29.7in /  1005.2hPa SSE 3.6mph /  5.8km/h 9.7mph /  15.6km/h 20.9% 0in /  0.0mm
12:44 90.1 °F /  32.3 °C 45 °F /  7.2 °C 29.7in /  1005.2hPa Este 4.7mph /  7.6km/h 10mph /  16.1km/h 21% 0in /  0.0mm
12:49 90.1 °F /  32.3 °C 45 °F /  7.2 °C 29.7in /  1005.2hPa ESE 4.9mph /  7.9km/h 9.2mph /  14.8km/h 21% 0in /  0.0mm
12:54 90.1 °F /  32.3 °C 45 °F /  7.2 °C 29.7in /  1005.1hPa Sur 5.4mph /  8.7km/h 9.2mph /  14.8km/h 21% 0in /  0.0mm
12:59 90.1 °F /  32.3 °C 44.8 °F /  7.1 °C 29.7in /  1005.1hPa SE 5.3mph /  8.6km/h 10.2mph /  16.4km/h 20.8% 0in /  0.0mm
13:04 90.5 °F /  32.5 °C 44.1 °F /  6.7 °C 29.7in /  1005.1hPa SSO 5.2mph /  8.4km/h 10.4mph /  16.7km/h 20.2% 0in /  0.0mm
13:09 90.7 °F /  32.6 °C 44.2 °F /  6.8 °C 29.7in /  1004.8hPa Sur 5.6mph /  9km/h 15mph /  24.1km/h 20.1% 0in /  0.0mm
13:14 90.7 °F /  32.6 °C 44.1 °F /  6.7 °C 29.7in /  1004.8hPa Sur 6.4mph /  10.3km/h 15mph /  24.1km/h 20% 0in /  0.0mm
13:19 90.7 °F /  32.6 °C 44.1 °F /  6.7 °C 29.7in /  1004.8hPa SO 6.4mph /  10.3km/h 11.5mph /  18.5km/h 20% 0in /  0.0mm
13:24 91 °F /  32.8 °C 44.4 °F /  6.9 °C 29.7in /  1004.5hPa NNO 6.4mph /  10.3km/h 12mph /  19.3km/h 20% 0in /  0.0mm
13:29 91.6 °F /  33.1 °C 44.6 °F /  7 °C 29.7in /  1004.5hPa Este 5.3mph /  8.5km/h 7.4mph /  11.9km/h 19.9% 0in /  0.0mm
13:34 91.8 °F /  33.2 °C 43.9 °F /  6.6 °C 29.7in /  1004.5hPa Sur 2.9mph /  4.7km/h 9.2mph /  14.8km/h 19.2% 0in /  0.0mm
13:39 91.6 °F /  33.1 °C 44.1 °F /  6.7 °C 29.7in /  1004.3hPa SE 3.3mph /  5.3km/h 9mph /  14.5km/h 19.5% 0in /  0.0mm
13:44 91.9 °F /  33.3 °C 44.1 °F /  6.7 °C 29.7in /  1004.3hPa SO 4.3mph /  6.9km/h 8.1mph /  13km/h 19.2% 0in /  0.0mm
13:49 92.5 °F /  33.6 °C 44.2 °F /  6.8 °C 29.7in /  1004.3hPa OSO 4.4mph /  7.1km/h 8.1mph /  13km/h 19% 0in /  0.0mm
13:54 92.5 °F /  33.6 °C 44.4 °F /  6.9 °C 29.7in /  1004.1hPa SSE 4.7mph /  7.6km/h 9.2mph /  14.8km/h 19.1% 0in /  0.0mm
13:59 92.7 °F /  33.7 °C 44.4 °F /  6.9 °C 29.7in /  1004.1hPa ONO 4.5mph /  7.3km/h 9.2mph /  14.8km/h 19% 0in /  0.0mm
14:04 92.8 °F /  33.8 °C 44.2 °F /  6.8 °C 29.7in /  1004.1hPa SO 4.3mph /  6.9km/h 9mph /  14.5km/h 18.8% 0in /  0.0mm
14:09 92.8 °F /  33.8 °C 43.3 °F /  6.3 °C 29.6in /  1003.7hPa SO 4.3mph /  6.9km/h 11.4mph /  18.3km/h 18.1% 0in /  0.0mm
14:14 92.8 °F /  33.8 °C 43.7 °F /  6.5 °C 29.6in /  1003.7hPa NNE 4.3mph /  6.9km/h 12mph /  19.3km/h 18.4% 0in /  0.0mm
14:19 92.8 °F /  33.8 °C 43.5 °F /  6.4 °C 29.6in /  1003.7hPa ONO 4.6mph /  7.4km/h 12mph /  19.3km/h 18.3% 0in /  0.0mm
14:24 93 °F /  33.9 °C 43.3 °F /  6.3 °C 29.6in /  1003.6hPa OSO 5.2mph /  8.4km/h 10.4mph /  16.7km/h 18% 0in /  0.0mm
14:29 93.7 °F /  34.3 °C 43.2 °F /  6.2 °C 29.6in /  1003.6hPa Sur 5.3mph /  8.5km/h 15mph /  24.1km/h 17.5% 0in /  0.0mm
14:34 93.6 °F /  34.2 °C 43.3 °F /  6.3 °C 29.6in /  1003.6hPa ENE 5.4mph /  8.7km/h 15mph /  24.1km/h 17.8% 0in /  0.0mm
14:39 94.3 °F /  34.6 °C 43.7 °F /  6.5 °C 29.6in /  1003.5hPa SE 5mph /  8.1km/h 13mph /  20.9km/h 17.7% 0in /  0.0mm
14:44 94.6 °F /  34.8 °C 43 °F /  6.1 °C 29.6in /  1003.5hPa Sur 4.3mph /  6.9km/h 13mph /  20.9km/h 17% 0in /  0.0mm
14:49 94.6 °F /  34.8 °C 43.3 °F /  6.3 °C 29.6in /  1003.5hPa SSO 4.9mph /  7.9km/h 13mph /  20.9km/h 17.2% 0in /  0.0mm
14:54 94.8 °F /  34.9 °C 43.2 °F /  6.2 °C 29.6in /  1003.2hPa SSO 6.4mph /  10.3km/h 16.1mph /  25.9km/h 17% 0in /  0.0mm
14:59 94.8 °F /  34.9 °C 42.8 °F /  6 °C 29.6in /  1003.2hPa SO 6.8mph /  10.9km/h 16mph /  25.7km/h 16.7% 0in /  0.0mm
15:04 95.2 °F /  35.1 °C 43 °F /  6.1 °C 29.6in /  1003.2hPa SSE 7.4mph /  11.9km/h 13mph /  20.9km/h 16.7% 0in /  0.0mm
15:09 95.4 °F /  35.2 °C 43.2 °F /  6.2 °C 29.6in /  1003.0hPa Sur 7mph /  11.3km/h 14mph /  22.5km/h 16.7% 0in /  0.0mm
15:14 95.9 °F /  35.5 °C 43.2 °F /  6.2 °C 29.6in /  1003.0hPa SO 6.2mph /  10km/h 14mph /  22.5km/h 16.4% 0in /  0.0mm
15:19 96.4 °F /  35.8 °C 43 °F /  6.1 °C 29.6in /  1003.0hPa SSO 5.7mph /  9.2km/h 10mph /  16.1km/h 16% 0in /  0.0mm
15:24 96.6 °F /  35.9 °C 43.2 °F /  6.2 °C 29.6in /  1002.9hPa SSO 4.7mph /  7.6km/h 10.4mph /  16.7km/h 16% 0in /  0.0mm
15:29 96.4 °F /  35.8 °C 43 °F /  6.1 °C 29.6in /  1002.9hPa ENE 4.9mph /  7.9km/h 11.2mph /  18km/h 16.1% 0in /  0.0mm
15:34 96.4 °F /  35.8 °C 43 °F /  6.1 °C 29.6in /  1002.9hPa North 5.4mph /  8.7km/h 12mph /  19.3km/h 16.1% 0in /  0.0mm
15:39 96.4 °F /  35.8 °C 42.8 °F /  6 °C 29.6in /  1002.7hPa NNE 5.7mph /  9.1km/h 12mph /  19.3km/h 16% 0in /  0.0mm
15:44 96.3 °F /  35.7 °C 42.6 °F /  5.9 °C 29.6in /  1002.7hPa North 6.2mph /  10km/h 16.1mph /  25.9km/h 16% 0in /  0.0mm
15:49 96.1 °F /  35.6 °C 43.9 °F /  6.6 °C 29.6in /  1002.7hPa North 6.4mph /  10.3km/h 16mph /  25.7km/h 16.8% 0in /  0.0mm
15:54 95.9 °F /  35.5 °C 44.1 °F /  6.7 °C 29.6in /  1002.6hPa North 6.9mph /  11.1km/h 14mph /  22.5km/h 17% 0in /  0.0mm
15:59 95.5 °F /  35.3 °C 47.3 °F /  8.5 °C 29.6in /  1002.6hPa NO 6.7mph /  10.8km/h 12.7mph /  20.4km/h 19.5% 0in /  0.0mm
16:04 95.2 °F /  35.1 °C 50.9 °F /  10.5 °C 29.6in /  1002.6hPa NO 6.4mph /  10.3km/h 17mph /  27.4km/h 22.5% 0in /  0.0mm
16:09 94.8 °F /  34.9 °C 51.6 °F /  10.9 °C 29.6in /  1002.5hPa ONO 7.1mph /  11.4km/h 17.3mph /  27.8km/h 23.3% 0in /  0.0mm
16:14 94.6 °F /  34.8 °C 52.3 °F /  11.3 °C 29.6in /  1002.5hPa NO 8.5mph /  13.7km/h 16.3mph /  26.2km/h 24% 0in /  0.0mm
16:19 94.6 °F /  34.8 °C 52.2 °F /  11.2 °C 29.6in /  1002.5hPa NNO 9mph /  14.5km/h 20.7mph /  33.3km/h 24% 0in /  0.0mm
16:24 94.5 °F /  34.7 °C 52.5 °F /  11.4 °C 29.6in /  1002.3hPa NNO 10.2mph /  16.4km/h 24.2mph /  38.9km/h 24.3% 0in /  0.0mm
16:29 95 °F /  35 °C 52.7 °F /  11.5 °C 29.6in /  1002.3hPa NO 10.1mph /  16.3km/h 24mph /  38.6km/h 24.1% 0in /  0.0mm
16:34 95.2 °F /  35.1 °C 52.7 °F /  11.5 °C 29.6in /  1002.3hPa NNO 10mph /  16.1km/h 19mph /  30.6km/h 24.1% 0in /  0.0mm
16:39 95.2 °F /  35.1 °C 53.2 °F /  11.8 °C 29.6in /  1002.1hPa NO 9.6mph /  15.4km/h 17.5mph /  28.2km/h 24.5% 0in /  0.0mm
16:44 95.2 °F /  35.1 °C 53.2 °F /  11.8 °C 29.6in /  1002.1hPa ONO 8.5mph /  13.7km/h 17mph /  27.4km/h 24.4% 0in /  0.0mm
16:49 95.5 °F /  35.3 °C 53.1 °F /  11.7 °C 29.6in /  1002.1hPa NO 8.5mph /  13.7km/h 26.8mph /  43.1km/h 24% 0in /  0.0mm
16:54 95.7 °F /  35.4 °C 53.1 °F /  11.7 °C 29.6in /  1002.0hPa NO 8.5mph /  13.7km/h 27.6mph /  44.4km/h 24% 0in /  0.0mm
16:59 95.4 °F /  35.2 °C 52.9 °F /  11.6 °C 29.6in /  1002.0hPa NO 11.1mph /  17.9km/h 28.8mph /  46.3km/h 24% 0in /  0.0mm
17:04 95.7 °F /  35.4 °C 53.1 °F /  11.7 °C 29.6in /  1002.0hPa ONO 15.6mph /  25.1km/h 29mph /  46.7km/h 24% 0in /  0.0mm
17:09 95.7 °F /  35.4 °C 53.2 °F /  11.8 °C 29.6in /  1001.9hPa NO 14.2mph /  22.8km/h 22.3mph /  35.9km/h 24% 0in /  0.0mm
17:14 95.4 °F /  35.2 °C 52.9 °F /  11.6 °C 29.6in /  1001.9hPa NO 11.2mph /  18km/h 25.6mph /  41.2km/h 24% 0in /  0.0mm
17:19 95.2 °F /  35.1 °C 53.4 °F /  11.9 °C 29.6in /  1001.9hPa NO 12.2mph /  19.7km/h 26mph /  41.8km/h 24.6% 0in /  0.0mm
17:24 95.4 °F /  35.2 °C 53.2 °F /  11.8 °C 29.6in /  1001.8hPa ONO 14.5mph /  23.3km/h 28.8mph /  46.3km/h 24.3% 0in /  0.0mm
17:29 95.5 °F /  35.3 °C 53.1 °F /  11.7 °C 29.6in /  1001.8hPa ONO 14.4mph /  23.1km/h 29mph /  46.7km/h 24% 0in /  0.0mm
17:34 95.4 °F /  35.2 °C 53.2 °F /  11.8 °C 29.6in /  1001.8hPa NO 14mph /  22.5km/h 29.1mph /  46.8km/h 24.4% 0in /  0.0mm
17:39 95.5 °F /  35.3 °C 53.4 °F /  11.9 °C 29.6in /  1001.7hPa ONO 14.4mph /  23.1km/h 29mph /  46.7km/h 24.4% 0in /  0.0mm
17:44 95.4 °F /  35.2 °C 52.9 °F /  11.6 °C 29.6in /  1001.7hPa ONO 15.2mph /  24.5km/h 24mph /  38.6km/h 24% 0in /  0.0mm
17:49 95.5 °F /  35.3 °C 53.6 °F /  12 °C 29.6in /  1001.8hPa ONO 14.7mph /  23.6km/h 23.5mph /  37.8km/h 24.6% 0in /  0.0mm
17:54 95.4 °F /  35.2 °C 52.9 °F /  11.6 °C 29.6in /  1001.8hPa ONO 13.5mph /  21.7km/h 25.3mph /  40.7km/h 24% 0in /  0.0mm
17:59 95.2 °F /  35.1 °C 53.1 °F /  11.7 °C 29.6in /  1001.8hPa ONO 13.9mph /  22.3km/h 26.8mph /  43.1km/h 24.4% 0in /  0.0mm
18:04 95.4 °F /  35.2 °C 53.1 °F /  11.7 °C 29.6in /  1001.9hPa ONO 14.5mph /  23.3km/h 27mph /  43.5km/h 24.2% 0in /  0.0mm
18:09 95 °F /  35 °C 52.7 °F /  11.5 °C 29.6in /  1001.9hPa ONO 14.2mph /  22.9km/h 24.6mph /  39.6km/h 24.1% 0in /  0.0mm
18:14 94.8 °F /  34.9 °C 52.7 °F /  11.5 °C 29.6in /  1001.9hPa NO 13.7mph /  22.1km/h 26.5mph /  42.6km/h 24.2% 0in /  0.0mm
18:19 94.6 °F /  34.8 °C 52.3 °F /  11.3 °C 29.6in /  1001.9hPa ONO 14mph /  22.5km/h 29.9mph /  48.1km/h 24% 0in /  0.0mm
18:24 94.3 °F /  34.6 °C 52 °F /  11.1 °C 29.6in /  1001.9hPa ONO 14.5mph /  23.3km/h 30mph /  48.3km/h 24.1% 0in /  0.0mm
18:29 93.9 °F /  34.4 °C 52 °F /  11.1 °C 29.6in /  1001.9hPa ONO 15.5mph /  24.9km/h 28mph /  45.1km/h 24.4% 0in /  0.0mm
18:34 94.1 °F /  34.5 °C 52 °F /  11.1 °C 29.6in /  1002.1hPa ONO 17.5mph /  28.2km/h 29.1mph /  46.8km/h 24.2% 0in /  0.0mm
18:39 93.9 °F /  34.4 °C 51.8 °F /  11 °C 29.6in /  1002.1hPa ONO 17.1mph /  27.5km/h 29mph /  46.7km/h 24.1% 0in /  0.0mm
18:44 93.9 °F /  34.4 °C 51.6 °F /  10.9 °C 29.6in /  1002.1hPa ONO 16.3mph /  26.2km/h 27.6mph /  44.4km/h 24% 0in /  0.0mm
18:49 94.1 °F /  34.5 °C 51.8 °F /  11 °C 29.6in /  1002.1hPa ONO 15.5mph /  25km/h 28mph /  45.1km/h 24% 0in /  0.0mm
18:54 94.1 °F /  34.5 °C 51.8 °F /  11 °C 29.6in /  1002.0hPa ONO 13.7mph /  22.1km/h 29.9mph /  48.1km/h 24% 0in /  0.0mm
18:59 93.9 °F /  34.4 °C 51.3 °F /  10.7 °C 29.6in /  1002.0hPa ONO 14.4mph /  23.1km/h 30.6mph /  49.2km/h 23.6% 0in /  0.0mm
19:04 93.9 °F /  34.4 °C 51.1 °F /  10.6 °C 29.6in /  1002.0hPa ONO 15.6mph /  25.1km/h 31.1mph /  50.1km/h 23.6% 0in /  0.0mm
19:09 93.9 °F /  34.4 °C 51.4 °F /  10.8 °C 29.6in /  1002.0hPa ONO 15.8mph /  25.5km/h 29.9mph /  48.1km/h 23.8% 0in /  0.0mm
19:14 93.7 °F /  34.3 °C 51.4 °F /  10.8 °C 29.6in /  1002.0hPa ONO 16.3mph /  26.2km/h 30mph /  48.3km/h 24% 0in /  0.0mm
19:19 93.6 °F /  34.2 °C 51.3 °F /  10.7 °C 29.6in /  1002.2hPa ONO 16.7mph /  26.8km/h 26.5mph /  42.6km/h 24% 0in /  0.0mm
19:24 93.4 °F /  34.1 °C 51.3 °F /  10.7 °C 29.6in /  1002.2hPa ONO 17.5mph /  28.2km/h 29.1mph /  46.8km/h 24% 0in /  0.0mm
19:29 93.6 °F /  34.2 °C 51.3 °F /  10.7 °C 29.6in /  1002.2hPa ONO 16.7mph /  26.8km/h 29mph /  46.7km/h 24% 0in /  0.0mm
19:34 93.7 °F /  34.3 °C 51.4 °F /  10.8 °C 29.6in /  1002.4hPa ONO 14.7mph /  23.7km/h 19mph /  30.6km/h 24% 0in /  0.0mm
19:39 93.7 °F /  34.3 °C 51.6 °F /  10.9 °C 29.6in /  1002.4hPa ONO 13.6mph /  21.9km/h 20.4mph /  32.8km/h 24% 0in /  0.0mm
19:44 93.6 °F /  34.2 °C 52.3 °F /  11.3 °C 29.6in /  1002.4hPa ONO 11.4mph /  18.4km/h 21mph /  33.8km/h 24.9% 0in /  0.0mm
19:49 93.4 °F /  34.1 °C 52.3 °F /  11.3 °C 29.6in /  1002.5hPa ONO 11.7mph /  18.9km/h 21mph /  33.8km/h 25% 0in /  0.0mm
19:54 93.4 °F /  34.1 °C 52.3 °F /  11.3 °C 29.6in /  1002.5hPa Oeste 12.5mph /  20.1km/h 20.7mph /  33.3km/h 25% 0in /  0.0mm
19:59 93.4 °F /  34.1 °C 52.2 °F /  11.2 °C 29.6in /  1002.5hPa Oeste 11.9mph /  19.2km/h 24.2mph /  38.9km/h 25% 0in /  0.0mm
20:04 92.8 °F /  33.8 °C 52.5 °F /  11.4 °C 29.6in /  1002.7hPa ONO 10.7mph /  17.2km/h 25.3mph /  40.7km/h 25.6% 0in /  0.0mm
20:09 92.7 °F /  33.7 °C 52.9 °F /  11.6 °C 29.6in /  1002.7hPa ONO 11mph /  17.7km/h 25mph /  40.2km/h 26% 0in /  0.0mm
20:14 92.5 °F /  33.6 °C 52.7 °F /  11.5 °C 29.6in /  1002.7hPa ONO 11.8mph /  19km/h 24.2mph /  38.9km/h 26% 0in /  0.0mm
20:19 92.1 °F /  33.4 °C 52.3 °F /  11.3 °C 29.6in /  1002.8hPa ONO 12.6mph /  20.3km/h 24mph /  38.6km/h 26% 0in /  0.0mm
20:24 92.1 °F /  33.4 °C 52.3 °F /  11.3 °C 29.6in /  1002.8hPa Oeste 14.5mph /  23.3km/h 23mph /  37km/h 26% 0in /  0.0mm
20:29 92.1 °F /  33.4 °C 52.5 °F /  11.4 °C 29.6in /  1002.8hPa Oeste 13.8mph /  22.2km/h 23mph /  37km/h 26.1% 0in /  0.0mm
20:34 92.1 °F /  33.4 °C 53.2 °F /  11.8 °C 29.6in /  1003.0hPa Oeste 12.3mph /  19.8km/h 21mph /  33.8km/h 27% 0in /  0.0mm
20:39 91.9 °F /  33.3 °C 53.2 °F /  11.8 °C 29.6in /  1003.0hPa Oeste 11.9mph /  19.1km/h 23mph /  37km/h 27% 0in /  0.0mm
20:44 91.9 °F /  33.3 °C 53.2 °F /  11.8 °C 29.6in /  1003.0hPa Oeste 10.7mph /  17.2km/h 23.5mph /  37.8km/h 27% 0in /  0.0mm
20:49 91.8 °F /  33.2 °C 53.4 °F /  11.9 °C 29.6in /  1003.1hPa Oeste 10.9mph /  17.5km/h 23mph /  37km/h 27.5% 0in /  0.0mm
20:54 91.4 °F /  33 °C 53.6 °F /  12 °C 29.6in /  1003.1hPa Oeste 11.4mph /  18.4km/h 20.8mph /  33.5km/h 28% 0in /  0.0mm
20:59 91.2 °F /  32.9 °C 53.6 °F /  12 °C 29.6in /  1003.1hPa Oeste 11.2mph /  18km/h 21mph /  33.8km/h 28% 0in /  0.0mm
21:04 91 °F /  32.8 °C 54 °F /  12.2 °C 29.6in /  1003.3hPa ONO 10.7mph /  17.2km/h 19mph /  30.6km/h 28.5% 0in /  0.0mm
21:09 90.9 °F /  32.7 °C 54.1 °F /  12.3 °C 29.6in /  1003.3hPa Oeste 10mph /  16.1km/h 17mph /  27.4km/h 29% 0in /  0.0mm
21:14 90.7 °F /  32.6 °C 54.1 °F /  12.3 °C 29.6in /  1003.3hPa Oeste 8.5mph /  13.7km/h 16.1mph /  25.9km/h 29% 0in /  0.0mm
21:19 90.5 °F /  32.5 °C 54 °F /  12.2 °C 29.6in /  1003.5hPa Oeste 8.7mph /  14km/h 16.1mph /  25.9km/h 29% 0in /  0.0mm
21:24 90.3 °F /  32.4 °C 53.8 °F /  12.1 °C 29.6in /  1003.5hPa Oeste 9.2mph /  14.8km/h 16mph /  25.7km/h 29% 0in /  0.0mm
21:29 90.3 °F /  32.4 °C 53.8 °F /  12.1 °C 29.6in /  1003.5hPa OSO 8.7mph /  14km/h 14mph /  22.5km/h 29% 0in /  0.0mm
21:34 90.1 °F /  32.3 °C 53.6 °F /  12 °C 29.6in /  1003.8hPa Oeste 7.6mph /  12.2km/h 13mph /  20.9km/h 29% 0in /  0.0mm
21:39 90.1 °F /  32.3 °C 53.8 °F /  12.1 °C 29.6in /  1003.8hPa Oeste 7.5mph /  12.1km/h 17.3mph /  27.8km/h 29.2% 0in /  0.0mm
21:44 90 °F /  32.2 °C 54.3 °F /  12.4 °C 29.6in /  1003.8hPa Oeste 7.4mph /  11.9km/h 17mph /  27.4km/h 30% 0in /  0.0mm
21:49 89.8 °F /  32.1 °C 54.1 °F /  12.3 °C 29.7in /  1004.0hPa Oeste 7.8mph /  12.5km/h 18.4mph /  29.6km/h 30% 0in /  0.0mm
21:54 89.8 °F /  32.1 °C 54.1 °F /  12.3 °C 29.7in /  1004.0hPa Oeste 8.7mph /  14km/h 18mph /  29km/h 30% 0in /  0.0mm
21:59 89.8 °F /  32.1 °C 54.1 °F /  12.3 °C 29.7in /  1004.0hPa Oeste 9.4mph /  15.1km/h 20.7mph /  33.3km/h 30% 0in /  0.0mm
22:04 89.6 °F /  32 °C 54.1 °F /  12.3 °C 29.7in /  1004.3hPa Oeste 10.7mph /  17.2km/h 21mph /  33.8km/h 30% 0in /  0.0mm
22:09 89.4 °F /  31.9 °C 54 °F /  12.2 °C 29.7in /  1004.3hPa Oeste 10.3mph /  16.5km/h 20.7mph /  33.3km/h 30% 0in /  0.0mm
22:14 89.4 °F /  31.9 °C 54 °F /  12.2 °C 29.7in /  1004.3hPa Oeste 9.2mph /  14.8km/h 21mph /  33.8km/h 30% 0in /  0.0mm
22:19 89.2 °F /  31.8 °C 54.5 °F /  12.5 °C 29.7in /  1004.6hPa Oeste 9.1mph /  14.6km/h 18.1mph /  29.1km/h 30.9% 0in /  0.0mm
22:24 89.2 °F /  31.8 °C 54.7 °F /  12.6 °C 29.7in /  1004.6hPa Oeste 8.7mph /  14km/h 18.4mph /  29.6km/h 31% 0in /  0.0mm
22:29 89.1 °F /  31.7 °C 54.5 °F /  12.5 °C 29.7in /  1004.6hPa Oeste 8.9mph /  14.3km/h 16.1mph /  25.9km/h 31% 0in /  0.0mm
22:34 89.1 °F /  31.7 °C 54.5 °F /  12.5 °C 29.7in /  1005.0hPa Oeste 9.2mph /  14.8km/h 16mph /  25.7km/h 31.2% 0in /  0.0mm
22:39 88.7 °F /  31.5 °C 55.2 °F /  12.9 °C 29.7in /  1005.0hPa Oeste 8.8mph /  14.2km/h 15mph /  24.1km/h 32% 0in /  0.0mm
22:44 88.5 °F /  31.4 °C 54.9 °F /  12.7 °C 29.7in /  1005.0hPa Oeste 8.1mph /  13km/h 15mph /  24.1km/h 32% 0in /  0.0mm
22:49 88.3 °F /  31.3 °C 54.9 °F /  12.7 °C 29.7in /  1005.4hPa Oeste 7.7mph /  12.4km/h 17.5mph /  28.2km/h 32% 0in /  0.0mm
22:54 88.3 °F /  31.3 °C 54.7 °F /  12.6 °C 29.7in /  1005.4hPa Oeste 6.9mph /  11.1km/h 17mph /  27.4km/h 32% 0in /  0.0mm
22:59 88.2 °F /  31.2 °C 55 °F /  12.8 °C 29.7in /  1005.4hPa Oeste 6.7mph /  10.8km/h 13mph /  20.9km/h 32.5% 0in /  0.0mm
23:04 88.2 °F /  31.2 °C 55.4 °F /  13 °C 29.7in /  1005.6hPa Oeste 6.4mph /  10.3km/h 12mph /  19.3km/h 33% 0in /  0.0mm
23:09 88 °F /  31.1 °C 55.2 °F /  12.9 °C 29.7in /  1005.6hPa NO 6.6mph /  10.6km/h 15mph /  24.1km/h 33% 0in /  0.0mm
23:14 87.6 °F /  30.9 °C 55.8 °F /  13.2 °C 29.7in /  1005.6hPa ONO 6.9mph /  11.1km/h 17.3mph /  27.8km/h 33.9% 0in /  0.0mm
23:19 87.3 °F /  30.7 °C 55.9 °F /  13.3 °C 29.7in /  1005.9hPa ONO 7.8mph /  12.5km/h 19mph /  30.6km/h 34.5% 0in /  0.0mm
23:24 87.3 °F /  30.7 °C 56.1 °F /  13.4 °C 29.7in /  1005.9hPa ONO 9.7mph /  15.6km/h 20.7mph /  33.3km/h 35% 0in /  0.0mm
23:29 86.7 °F /  30.4 °C 55.9 °F /  13.3 °C 29.7in /  1005.9hPa ONO 9.8mph /  15.8km/h 21mph /  33.8km/h 35% 0in /  0.0mm
23:34 86.5 °F /  30.3 °C 56.3 °F /  13.5 °C 29.7in /  1006.1hPa ONO 10mph /  16.1km/h 21mph /  33.8km/h 35.9% 0in /  0.0mm
23:39 86.4 °F /  30.2 °C 56.3 °F /  13.5 °C 29.7in /  1006.1hPa ONO 10.6mph /  17km/h 21.9mph /  35.2km/h 36% 0in /  0.0mm
23:44 86.2 °F /  30.1 °C 56.1 °F /  13.4 °C 29.7in /  1006.1hPa NO 11.8mph /  19km/h 22mph /  35.4km/h 36% 0in /  0.0mm
23:49 86.2 °F /  30.1 °C 56.5 °F /  13.6 °C 29.7in /  1006.2hPa ONO 12mph /  19.3km/h 21mph /  33.8km/h 36.7% 0in /  0.0mm
23:54 85.8 °F /  29.9 °C 56.5 °F /  13.6 °C 29.7in /  1006.2hPa ONO 12.5mph /  20.1km/h 17.3mph /  27.8km/h 37% 0in /  0.0mm
23:59 85.6 °F /  29.8 °C 56.5 °F /  13.6 °C 29.7in /  1006.2hPa ONO 11.6mph /  18.7km/h 17mph /  27.4km/h 37% 0in /  0.0mm
Murcia-Puente Tocinos, España
Compliments of Weather Underground - 3 mb

La estación de MeteoMurcia.com, publica sus datos en los siguientes proyectos:

Weather Underground PWS IMURCIAP2 Meteoclimatic www.awekas.at

W3Counter
Web Analytics